Ride Results

Kentish (17-03-2007)
Ride distance: 80.0 km

Outcomes - Kentish (17-03-2007)
Division No. of Entries Retired / DNE Completed Withdrawn Ineligible V/O Percentage Completed
HW 8 - 5 1 - 2 62.50%
MW 22 - 14 1 1 6 63.64%
LW 6 - 5 - - 1 83.33%
JN 7 - 5 - - 2 71.43%
Totals 43 - 29 2 1 11 67.44%
Results - Kentish (17-03-2007)
No. Rider Horse Place Time Leg Speeds Total
Km/Hr
H/R bpm
Heavyweight
94 Natalie Humphries Springer 1 6:11:00 12.9, 12.9 12.94 32, 48, 56 (Avg:52)
199 Nicholas Gilbert Highland View Darrah 2 6:11:01 13.1, 12.7 12.94 34, 41, 47 (Avg:44)
36 Chris Webb Kalody Park Shubek 3 6:49:00 11.9, 11.5 11.74 36, 44, 51 (Avg:47)
48 Alison Colbeck Glendhu Summerdance 4 6:54:00 11.0, 12.1 11.59 32, 36, 44 (Avg:40)
14 Philip Gerke Tanus 5 7:29:00 11.0, 10.3 10.69 32, 45, 57 (Avg:51)
123 Peter McIntee Hayden Heart Rate L1 0:00:00 11.5 - 43, 76 (Avg:76)
155 Gaylene Renwick Elphyn Flame Heart Rate L1 0:00:00 12.9 - 31, 83 (Avg:83)
196 Anita Johnson Solara Withdrawn P/R 0:00:00 - - 39
Middleweight
68 Janine Parr Rathmore Mystique 1 4:23:00 17.6, 18.8 18.25 32, 43, 45 (Avg:44)
38 Tony Purton Beer Street Tiger Lily 2 4:23:01 17.7, 18.7 18.25 42, 49, 50 (Avg:49)
101 Wendy Rand Shayelle Minka 3 4:38:00 17.6, 16.9 17.27 35, 44, 47 (Avg:45)
77 Alison Lockhart Silver Phantom 4 5:33:00 14.4, 14.3 14.41 39, 43, 51 (Avg:47)
80 Noel Lockhart Alnotarj Zhaan 4 5:33:00 14.4, 14.3 14.41 34, 42, 49 (Avg:45)
4 Helen Bowkett Jordanvale Snowbird 6 6:04:00 13.1, 13.2 13.19 29, 40, 57 (Avg:48)
7 Carol Dobson Three Trunks Hamos 6 6:04:00 13.1, 13.2 13.19 31, 41, 57 (Avg:49)
17 Thomas Wilde Cobber 8 6:27:00 11.8, 13.0 12.40 37, 39, 45 (Avg:42)
10 Libby Webb Sayida Mufti 9 6:49:00 11.9, 11.5 11.74 42, 47, 50 (Avg:48)
33 Tamieka Webb Montego Star 9 6:49:00 11.9, 11.5 11.74 36, 42, 44 (Avg:43)
44 Kendal McIntee Spring Lodge Calvardos 11 6:51:00 11.5, 11.8 11.68 34, 35, 43 (Avg:39)
102 Keryn Mahoney Sarisha 12 7:29:00 11.0, 10.3 10.69 34, 39, 56 (Avg:47)
187 Andrew Marshall Roheryn Desertique 12 7:29:00 11.0, 10.3 10.69 46, 48, 54 (Avg:51)
50 Joanne Marshall Inshallah Windsong 12 7:29:00 11.0, 10.3 10.69 47, 41, 53 (Avg:47)
30 Karyn Holden Flaming Star of Glendhu Lame L2 0:00:00 16.2, 15.3 - 34, 49, 0 (Avg:24)
88 Anthony Bloom Kerribea Heart Rate L1 0:00:00 13.7 - 34, 60 (Avg:60)
15 Sonia Brown-Cordell Imaj Hezitation Lame L1 0:00:00 12.9 - 51, 40 (Avg:40)
200 Jenny Keygan Elphyn Max Heart Rate L1 0:00:00 13.1 - 32, 61 (Avg:61)
111 Royce Martin Erin on the Rocks Disqualified L1 0:00:00 13.5 - 31, 36 (Avg:36)
58 Phillip Robertson Touchwarr Shara Lame L1 0:00:00 13.1 - 38, 45 (Avg:45)
40 Keren Wilde Aloha Zetoile Withdrawn L1 0:00:00 - - 33, 40 (Avg:40)
24 Kylie Williams Baye Lame L1 0:00:00 8.6 - 36, 42 (Avg:42)
Lightweight
53 Deborah Cole Karshna Sultans Comfort 1 5:53:00 13.1, 14.0 13.60 27, 36, 41 (Avg:38)
83 Angie Clark Tierview Shadow Chaser 2 6:11:00 12.9, 12.9 12.94 34, 49, 49 (Avg:49)
19 Sonia Hodgetts Millennium Star 3 6:31:00 12.9, 11.6 12.28 46, 48, 52 (Avg:50)
60 Jill Lowth Orabanda Dancing Silhouette 4 6:31:01 12.9, 11.6 12.28 34, 52, 60 (Avg:56)
23 Tracey Nutting Shemali Mikalaa 5 6:34:00 12.9, 11.5 12.18 35, 39, 47 (Avg:43)
28 Dimity Schofield Star Dancer of Glehdhu Lame L2 0:00:00 11.0, 12.1 - 31, 39, 42 (Avg:40)
Junior
79 Shannon Hill Lockleigh Park Misty Rose 1 5:33:00 14.4, 14.3 14.41 38, 39, 42 (Avg:40)
18 Sheleah Astell Splitters Creek Aussie 2 6:29:00 12.3, 12.3 12.34 30, 38, 50 (Avg:44)
92 Blaine Astell Pancho 2 6:29:00 12.3, 12.3 12.34 35, 43, 57 (Avg:50)
125 Brooke Brown-Cordell Santashka Senabi 4 6:54:00 12.9, 10.4 11.59 35, 36, 45 (Avg:40)
90 Joshua Williams Sonarai Blue Sage 5 7:40:00 8.6, 13.0 10.43 37, 43, 57 (Avg:50)
78 Brad Hill Malricia Bern Lame L1 0:00:00 11.0 - 34, 43 (Avg:43)
91 Cody McGlone Zac Lame L1 0:00:00 12.3 - 36, 40 (Avg:40)